createdAt,value
2023-04-10T00:00:12.591Z,58.60
2023-04-10T00:02:39.194Z,68.97
2023-04-10T00:05:06.534Z,63.90
2023-04-10T00:07:33.328Z,62.92
2023-04-10T00:09:59.807Z,78.05
2023-04-10T00:12:26.411Z,59.10
2023-04-10T00:14:52.918Z,70.20
2023-04-10T00:17:19.604Z,64.53
2023-04-10T00:19:46.119Z,63.67
2023-04-10T00:22:12.638Z,67.50
2023-04-10T00:24:39.153Z,66.53
2023-04-10T00:27:05.836Z,60.95
2023-04-10T00:29:32.305Z,63.78
2023-04-10T00:31:58.834Z,69.15
2023-04-10T00:34:25.922Z,60.58
2023-04-10T00:36:52.466Z,70.70
2023-04-10T00:39:19.283Z,71.38
2023-04-10T00:41:45.951Z,68.18
2023-04-10T00:44:12.630Z,62.70
2023-04-10T00:46:40.059Z,72.35
2023-04-10T00:49:06.997Z,69.35
2023-04-10T00:51:33.814Z,67.30
2023-04-10T00:54:01.313Z,65.97
2023-04-10T00:56:31.012Z,80.97
2023-04-10T00:58:57.661Z,72.63
2023-04-10T01:01:24.192Z,73.63
2023-04-10T01:03:51.380Z,72.38
2023-04-10T01:06:24.005Z,74.45
2023-04-10T01:08:55.121Z,69.80
2023-04-10T01:11:27.592Z,75.03
2023-04-10T01:14:14.341Z,80.68
2023-04-10T01:16:49.800Z,76.15
2023-04-10T01:19:39.478Z,70.15
2023-04-10T01:22:10.634Z,79.40
2023-04-10T01:24:37.134Z,81.45
2023-04-10T01:27:03.620Z,71.72
2023-04-10T01:29:31.007Z,93.07
2023-04-10T01:32:00.927Z,86.88
2023-04-10T01:34:39.587Z,86.95
2023-04-10T01:37:12.015Z,80.45
2023-04-10T01:39:40.104Z,83.88
2023-04-10T01:42:07.489Z,94.07
2023-04-10T01:44:34.794Z,104.88
2023-04-10T01:47:02.286Z,93.72
2023-04-10T01:49:30.566Z,97.50
2023-04-10T01:51:58.762Z,100.57
2023-04-10T01:54:28.306Z,98.25
2023-04-10T01:56:54.980Z,93.55
2023-04-10T01:59:21.730Z,90.47
2023-04-10T02:01:48.295Z,80.90
2023-04-10T02:04:15.047Z,84.00
2023-04-10T02:06:42.104Z,91.82
2023-04-10T02:09:12.662Z,78.95
2023-04-10T02:11:47.642Z,80.07
2023-04-10T02:14:16.686Z,71.28
2023-04-10T02:16:43.587Z,82.90
2023-04-10T02:19:11.251Z,85.63
2023-04-10T02:21:38.091Z,89.35
2023-04-10T02:24:04.735Z,91.85
2023-04-10T02:26:31.274Z,85.20
2023-04-10T02:28:57.747Z,87.13
2023-04-10T02:31:24.470Z,86.68
2023-04-10T02:33:51.069Z,90.70
2023-04-10T02:36:17.665Z,87.00
2023-04-10T02:38:44.190Z,85.13
2023-04-10T02:41:10.711Z,81.63
2023-04-10T02:43:37.206Z,70.28
2023-04-10T02:46:03.719Z,90.78
2023-04-10T02:48:30.363Z,78.40
2023-04-10T02:50:57.888Z,83.50
2023-04-10T02:53:26.114Z,79.03
2023-04-10T02:55:53.742Z,71.45
2023-04-10T02:58:22.116Z,79.38
2023-04-10T03:00:49.237Z,80.50
2023-04-10T03:03:16.111Z,85.97
2023-04-10T03:05:42.918Z,76.32
2023-04-10T03:08:09.477Z,76.95
2023-04-10T03:10:36.304Z,75.47
2023-04-10T03:13:02.863Z,68.55
2023-04-10T03:15:29.446Z,65.40
2023-04-10T03:17:56.774Z,72.40
2023-04-10T03:20:23.323Z,68.88
2023-04-10T03:22:50.791Z,67.78
2023-04-10T03:25:17.376Z,68.43
2023-04-10T03:27:43.862Z,65.90
2023-04-10T03:30:11.007Z,74.93
2023-04-10T03:32:37.553Z,66.35
2023-04-10T03:35:04.135Z,75.63
2023-04-10T03:37:31.782Z,76.88
2023-04-10T03:39:58.328Z,81.53
2023-04-10T03:42:24.952Z,80.15
2023-04-10T03:44:51.445Z,68.63
2023-04-10T03:47:17.941Z,72.57
2023-04-10T03:49:44.487Z,70.05
2023-04-10T03:52:11.059Z,77.60
2023-04-10T03:54:37.541Z,82.97
2023-04-10T03:57:04.081Z,67.05
2023-04-10T03:59:38.263Z,70.82
2023-04-10T04:02:06.786Z,68.03
2023-04-10T04:04:33.501Z,80.97
2023-04-10T04:07:00.239Z,73.20
2023-04-10T04:09:26.773Z,77.95
2023-04-10T04:11:53.306Z,73.03
2023-04-10T04:14:19.813Z,71.57
2023-04-10T04:16:46.585Z,80.40
2023-04-10T04:19:13.149Z,68.97
2023-04-10T04:21:39.649Z,70.55
2023-04-10T04:24:06.232Z,73.07
2023-04-10T04:26:33.009Z,80.60
2023-04-10T04:28:59.596Z,71.50
2023-04-10T04:31:32.341Z,78.20
2023-04-10T04:33:59.481Z,73.13
2023-04-10T04:36:26.591Z,73.65
2023-04-10T04:38:53.242Z,80.35
2023-04-10T04:41:20.700Z,77.47
2023-04-10T04:43:51.512Z,76.78
2023-04-10T04:46:18.230Z,73.60
2023-04-10T04:48:44.749Z,75.93
2023-04-10T04:51:11.307Z,82.93
2023-04-10T04:53:37.880Z,73.95
2023-04-10T04:56:04.460Z,64.93
2023-04-10T04:58:31.324Z,66.45
2023-04-10T05:00:57.917Z,74.03
2023-04-10T05:03:24.720Z,68.85
2023-04-10T05:05:51.562Z,66.20
2023-04-10T05:08:18.113Z,65.88
2023-04-10T05:10:44.653Z,58.95
2023-04-10T05:13:11.185Z,85.15
2023-04-10T05:15:37.996Z,64.80
2023-04-10T05:18:04.713Z,68.13
2023-04-10T05:20:31.553Z,64.25
2023-04-10T05:22:58.312Z,76.88
2023-04-10T05:25:24.859Z,61.65
2023-04-10T05:27:51.360Z,65.55
2023-04-10T05:30:17.898Z,79.70
2023-04-10T05:32:46.182Z,80.63
2023-04-10T05:35:12.796Z,78.45
2023-04-10T05:37:39.289Z,64.18
2023-04-10T05:40:06.226Z,85.03
2023-04-10T05:42:32.737Z,69.32
2023-04-10T05:44:59.246Z,74.40
2023-04-10T05:47:25.795Z,68.45
2023-04-10T05:49:52.334Z,68.18
2023-04-10T05:52:18.839Z,66.15
2023-04-10T05:54:45.448Z,62.53
2023-04-10T05:57:11.987Z,82.05
2023-04-10T05:59:38.463Z,65.00
2023-04-10T06:02:05.037Z,64.05
2023-04-10T06:04:31.875Z,56.67
2023-04-10T06:06:58.546Z,62.33
2023-04-10T06:09:25.071Z,74.15
2023-04-10T06:11:52.101Z,67.60
2023-04-10T06:14:19.403Z,66.45
2023-04-10T06:16:46.035Z,57.95
2023-04-10T06:19:12.702Z,57.03
2023-04-10T06:21:39.278Z,54.83
2023-04-10T06:24:06.522Z,60.28
2023-04-10T06:26:33.038Z,54.67
2023-04-10T06:29:00.089Z,56.08
2023-04-10T06:31:27.373Z,48.20
2023-04-10T06:33:53.988Z,52.13
2023-04-10T06:36:20.698Z,51.92
2023-04-10T06:38:47.247Z,46.03
2023-04-10T06:41:13.763Z,44.40
2023-04-10T06:43:40.418Z,42.95
2023-04-10T06:46:07.221Z,46.42
2023-04-10T06:48:33.946Z,41.60
2023-04-10T06:51:03.661Z,38.88
2023-04-10T06:53:30.451Z,44.83
2023-04-10T06:55:57.132Z,36.58
2023-04-10T06:58:24.651Z,34.53
2023-04-10T07:00:51.328Z,40.38
2023-04-10T07:03:17.910Z,37.55
2023-04-10T07:05:44.580Z,40.08
2023-04-10T07:08:11.088Z,31.83
2023-04-10T07:10:37.552Z,36.95
2023-04-10T07:13:04.161Z,40.20
2023-04-10T07:15:30.785Z,33.88
2023-04-10T07:17:57.355Z,29.58
2023-04-10T07:20:23.952Z,31.27
2023-04-10T07:22:50.497Z,32.80
2023-04-10T07:25:18.473Z,24.98
2023-04-10T07:27:45.062Z,29.33
2023-04-10T07:30:13.509Z,32.38
2023-04-10T07:32:42.297Z,35.05
2023-04-10T07:35:09.391Z,25.85
2023-04-10T07:37:36.159Z,23.63
2023-04-10T07:40:03.132Z,19.58
2023-04-10T07:42:30.100Z,17.33
2023-04-10T07:44:57.057Z,20.60
2023-04-10T07:47:23.683Z,20.38
2023-04-10T07:49:50.396Z,23.27
2023-04-10T07:52:17.200Z,16.08
2023-04-10T07:54:43.716Z,18.52
2023-04-10T07:57:10.413Z,16.55
2023-04-10T07:59:36.914Z,16.02
2023-04-10T08:02:03.502Z,16.92
2023-04-10T08:04:30.607Z,12.38
2023-04-10T08:06:57.298Z,12.15
2023-04-10T08:09:23.775Z,9.32
2023-04-10T08:11:50.296Z,8.88
2023-04-10T08:14:18.460Z,8.10
2023-04-10T08:16:45.447Z,2.45
2023-04-10T08:19:12.118Z,4.63
2023-04-10T08:21:38.649Z,2.30
2023-04-10T08:24:05.365Z,3.28
2023-04-10T08:26:32.393Z,2.35
2023-04-10T08:28:59.911Z,1.25
2023-04-10T08:31:28.098Z,1.30
2023-04-10T08:33:55.326Z,2.17
2023-04-10T08:36:22.271Z,1.88
2023-04-10T08:38:48.997Z,2.53
2023-04-10T08:41:18.974Z,2.85
2023-04-10T08:43:46.406Z,2.22
2023-04-10T08:46:16.360Z,2.60
2023-04-10T08:48:47.077Z,2.05
2023-04-10T08:51:20.317Z,2.58
2023-04-10T08:53:50.557Z,6.72
2023-04-10T08:56:17.971Z,2.38
2023-04-10T08:58:45.439Z,2.10
2023-04-10T09:01:12.429Z,3.63
2023-04-10T09:03:39.446Z,3.83
2023-04-10T09:06:06.389Z,4.05
2023-04-10T09:08:33.769Z,2.70
2023-04-10T09:11:00.470Z,2.78
2023-04-10T09:13:57.019Z,4.22
2023-04-10T09:16:28.615Z,2.33
2023-04-10T09:18:55.869Z,4.63
2023-04-10T09:21:22.448Z,2.17
2023-04-10T09:23:49.343Z,4.18
2023-04-10T09:26:31.960Z,2.35
2023-04-10T09:29:02.468Z,1.63
2023-04-10T09:31:29.665Z,2.97
2023-04-10T09:34:15.422Z,1.42
2023-04-10T09:36:42.850Z,3.92
2023-04-10T09:39:10.747Z,4.32
2023-04-10T09:41:49.716Z,4.38
2023-04-10T09:44:19.799Z,5.07
2023-04-10T09:46:46.873Z,2.85
2023-04-10T09:49:13.465Z,1.98
2023-04-10T09:51:40.048Z,4.93
2023-04-10T09:54:06.990Z,3.15
2023-04-10T09:56:36.312Z,7.38
2023-04-10T09:59:04.868Z,1.85
2023-04-10T10:01:34.767Z,1.75
2023-04-10T10:04:02.380Z,3.05
2023-04-10T10:06:30.241Z,2.60
2023-04-10T10:08:57.007Z,3.92
2023-04-10T10:11:24.894Z,2.03
2023-04-10T10:13:56.986Z,2.60
2023-04-10T10:16:29.407Z,4.07
2023-04-10T10:19:07.043Z,2.10
2023-04-10T10:21:34.425Z,2.00
2023-04-10T10:24:01.647Z,5.47
2023-04-10T10:26:29.253Z,3.28
2023-04-10T10:28:56.815Z,0.73
2023-04-10T10:31:24.614Z,0.88
2023-04-10T10:33:54.188Z,1.65
2023-04-10T10:36:20.966Z,1.30
2023-04-10T10:39:06.611Z,3.33
2023-04-10T10:41:38.467Z,2.55
2023-04-10T10:44:25.364Z,0.90
2023-04-10T10:46:57.785Z,1.45
2023-04-10T10:49:44.222Z,5.25
2023-04-10T10:52:10.765Z,3.03
2023-04-10T10:54:44.522Z,3.42
2023-04-10T10:57:43.168Z,2.05
2023-04-10T11:00:09.982Z,1.42
2023-04-10T11:02:36.572Z,1.80
2023-04-10T11:05:03.845Z,3.55
2023-04-10T11:07:48.953Z,4.47
2023-04-10T11:10:15.451Z,2.70
2023-04-10T11:13:02.208Z,1.25
2023-04-10T11:15:28.728Z,3.10
2023-04-10T11:17:55.817Z,2.92
2023-04-10T11:20:25.852Z,1.48
2023-04-10T11:23:14.141Z,2.35
2023-04-10T11:25:50.388Z,1.33
2023-04-10T11:28:32.173Z,2.60
2023-04-10T11:31:24.775Z,3.10
2023-04-10T11:34:00.433Z,3.28
2023-04-10T11:36:27.394Z,2.20
2023-04-10T11:39:01.001Z,1.40
2023-04-10T11:41:32.106Z,1.88
2023-04-10T11:43:59.578Z,3.53
2023-04-10T11:46:26.419Z,3.13
2023-04-10T11:48:54.475Z,1.83
2023-04-10T11:51:21.958Z,3.70
2023-04-10T11:53:48.553Z,2.17
2023-04-10T11:56:24.254Z,4.50
2023-04-10T11:58:54.029Z,1.83
2023-04-10T12:01:21.655Z,0.90
2023-04-10T12:03:48.321Z,1.63
2023-04-10T12:06:15.686Z,1.05
2023-04-10T12:08:47.602Z,1.15
2023-04-10T12:11:14.770Z,1.45
2023-04-10T12:13:41.340Z,2.67
2023-04-10T12:16:08.653Z,0.65
2023-04-10T12:18:36.008Z,2.10
2023-04-10T12:21:02.865Z,2.03
2023-04-10T12:23:29.865Z,1.20
2023-04-10T12:26:15.821Z,1.73
2023-04-10T12:28:49.371Z,1.73
2023-04-10T12:31:16.080Z,2.55
2023-04-10T12:33:48.410Z,1.17
2023-04-10T12:36:22.199Z,2.05
2023-04-10T12:38:48.705Z,0.73
2023-04-10T12:41:20.893Z,2.35
2023-04-10T12:43:47.385Z,1.70
2023-04-10T12:46:23.490Z,1.65
2023-04-10T12:48:49.980Z,2.65
2023-04-10T12:51:16.458Z,1.92
2023-04-10T12:53:44.054Z,1.20
2023-04-10T12:56:12.342Z,0.52
2023-04-10T12:58:39.290Z,1.15
2023-04-10T13:01:06.813Z,4.25
2023-04-10T13:03:36.829Z,1.38
2023-04-10T13:06:05.247Z,3.28
2023-04-10T13:08:32.690Z,1.73
2023-04-10T13:11:05.214Z,1.08
2023-04-10T13:13:32.858Z,1.67
2023-04-10T13:16:00.192Z,2.50
2023-04-10T13:18:27.082Z,1.42
2023-04-10T13:20:53.560Z,0.90
2023-04-10T13:23:20.053Z,1.48
2023-04-10T13:25:46.937Z,1.10
2023-04-10T13:28:13.432Z,1.60
2023-04-10T13:30:41.298Z,1.00
2023-04-10T13:33:08.237Z,2.13
2023-04-10T13:35:34.900Z,2.28
2023-04-10T13:38:01.467Z,2.47
2023-04-10T13:40:28.135Z,3.67
2023-04-10T13:42:54.701Z,2.45
2023-04-10T13:45:21.267Z,2.03
2023-04-10T13:47:48.143Z,2.15
2023-04-10T13:50:14.720Z,3.03
2023-04-10T13:52:41.224Z,1.70
2023-04-10T13:55:08.132Z,1.70
2023-04-10T13:57:34.700Z,2.08
2023-04-10T14:00:01.513Z,1.30
2023-04-10T14:02:28.290Z,1.65
2023-04-10T14:04:54.889Z,2.28
2023-04-10T14:07:21.376Z,1.00
2023-04-10T14:09:48.636Z,3.10
2023-04-10T14:12:19.263Z,0.52
2023-04-10T14:14:46.173Z,0.82
2023-04-10T14:17:12.702Z,3.10
2023-04-10T14:19:39.882Z,4.50
2023-04-10T14:22:06.517Z,0.90
2023-04-10T14:24:33.338Z,1.42
2023-04-10T14:27:01.434Z,4.30
2023-04-10T14:29:36.369Z,1.20
2023-04-10T14:32:06.109Z,1.55
2023-04-10T14:34:32.732Z,2.60
2023-04-10T14:36:59.753Z,1.15
2023-04-10T14:39:26.344Z,1.58
2023-04-10T14:41:52.889Z,2.75
2023-04-10T14:44:19.482Z,0.85
2023-04-10T14:46:46.274Z,0.98
2023-04-10T14:49:13.536Z,1.17
2023-04-10T14:51:42.531Z,1.80
2023-04-10T14:54:09.403Z,2.72
2023-04-10T14:56:36.071Z,3.92
2023-04-10T14:59:02.576Z,1.02
2023-04-10T15:01:29.128Z,1.98
2023-04-10T15:03:56.030Z,1.75
2023-04-10T15:06:22.798Z,1.33
2023-04-10T15:08:49.319Z,1.30
2023-04-10T15:11:15.945Z,0.70
2023-04-10T15:13:42.463Z,2.22
2023-04-10T15:16:08.980Z,1.35
2023-04-10T15:18:35.660Z,0.63
2023-04-10T15:21:02.190Z,1.55
2023-04-10T15:23:28.735Z,1.95
2023-04-10T15:25:55.442Z,1.08
2023-04-10T15:28:22.100Z,1.85
2023-04-10T15:30:50.163Z,1.20
2023-04-10T15:33:17.246Z,1.02
2023-04-10T15:35:47.732Z,1.92
2023-04-10T15:38:14.288Z,1.80
2023-04-10T15:40:40.935Z,2.33
2023-04-10T15:43:07.432Z,1.08
2023-04-10T15:45:35.598Z,0.80
2023-04-10T15:48:04.567Z,2.08
2023-04-10T15:50:31.447Z,4.28
2023-04-10T15:52:57.997Z,1.17
2023-04-10T15:55:24.551Z,1.90
2023-04-10T15:57:51.106Z,0.88
2023-04-10T16:00:17.843Z,2.65
2023-04-10T16:02:44.680Z,4.35
2023-04-10T16:05:11.507Z,3.03
2023-04-10T16:07:39.195Z,0.80
2023-04-10T16:10:06.314Z,1.05
2023-04-10T16:12:32.820Z,2.28
2023-04-10T16:14:59.292Z,2.08
2023-04-10T16:17:25.852Z,2.20
2023-04-10T16:19:52.398Z,4.13
2023-04-10T16:22:18.912Z,1.52
2023-04-10T16:24:45.471Z,0.70
2023-04-10T16:27:11.999Z,2.33
2023-04-10T16:29:38.503Z,0.85
2023-04-10T16:32:05.039Z,1.00
2023-04-10T16:34:31.525Z,1.00
2023-04-10T16:36:58.054Z,4.03
2023-04-10T16:39:24.567Z,7.10
2023-04-10T16:41:51.077Z,1.17
2023-04-10T16:44:17.557Z,1.55
2023-04-10T16:46:44.116Z,1.55
2023-04-10T16:49:10.728Z,2.17
2023-04-10T16:51:37.340Z,2.17
2023-04-10T16:54:03.886Z,2.15
2023-04-10T16:56:33.171Z,2.25
2023-04-10T16:58:59.719Z,7.38
2023-04-10T17:01:26.413Z,8.82
2023-04-10T17:03:53.644Z,4.25
2023-04-10T17:06:20.500Z,2.35
2023-04-10T17:08:47.241Z,2.40
2023-04-10T17:11:13.894Z,3.22
2023-04-10T17:13:41.228Z,3.08
2023-04-10T17:16:08.218Z,3.78
2023-04-10T17:18:34.780Z,1.05
2023-04-10T17:21:01.379Z,3.90
2023-04-10T17:23:27.908Z,2.38
2023-04-10T17:25:54.546Z,2.55
2023-04-10T17:28:21.180Z,4.65
2023-04-10T17:30:48.464Z,3.67
2023-04-10T17:33:15.029Z,6.10
2023-04-10T17:35:41.970Z,1.80
2023-04-10T17:38:08.528Z,1.45
2023-04-10T17:40:35.286Z,0.50
2023-04-10T17:43:01.792Z,1.95
2023-04-10T17:45:28.368Z,0.90
2023-04-10T17:47:54.998Z,2.53
2023-04-10T17:50:22.021Z,1.92
2023-04-10T17:52:48.524Z,0.93
2023-04-10T17:55:20.420Z,2.47
2023-04-10T17:57:47.768Z,1.00
2023-04-10T18:00:20.518Z,1.10
2023-04-10T18:02:50.479Z,5.93
2023-04-10T18:05:17.047Z,1.88
2023-04-10T18:07:43.654Z,0.65
2023-04-10T18:10:11.284Z,1.67
2023-04-10T18:12:38.183Z,1.92
2023-04-10T18:15:05.119Z,2.67
2023-04-10T18:17:31.803Z,3.03
2023-04-10T18:19:58.377Z,4.00
2023-04-10T18:22:24.978Z,4.13
2023-04-10T18:24:51.606Z,2.67
2023-04-10T18:27:18.135Z,0.88
2023-04-10T18:29:44.940Z,1.98
2023-04-10T18:32:11.421Z,2.03
2023-04-10T18:34:38.109Z,1.40
2023-04-10T18:37:04.613Z,2.90
2023-04-10T18:39:31.105Z,1.00
2023-04-10T18:41:58.192Z,2.45
2023-04-10T18:44:24.849Z,3.13
2023-04-10T18:47:01.319Z,3.45
2023-04-10T18:49:31.432Z,2.15
2023-04-10T18:51:57.956Z,3.85
2023-04-10T18:54:27.110Z,3.13
2023-04-10T18:56:53.655Z,2.88
2023-04-10T18:59:20.256Z,2.42
2023-04-10T19:01:46.928Z,8.50
2023-04-10T19:04:13.743Z,4.20
2023-04-10T19:06:41.223Z,3.35
2023-04-10T19:09:08.946Z,1.42
